sensor_id;sensor_type;location;lat;lon;timestamp;temperature;humidity
32348;DHT22;18821;44.800;10.326;2023-04-30T00:01:04;16.80;36.30
32348;DHT22;18821;44.800;10.326;2023-04-30T00:03:30;16.80;35.10
32348;DHT22;18821;44.800;10.326;2023-04-30T00:05:56;16.80;35.60
32348;DHT22;18821;44.800;10.326;2023-04-30T00:08:22;16.80;34.90
32348;DHT22;18821;44.800;10.326;2023-04-30T00:10:51;16.70;34.20
32348;DHT22;18821;44.800;10.326;2023-04-30T00:13:17;16.70;37.30
32348;DHT22;18821;44.800;10.326;2023-04-30T00:15:43;16.60;39.50
32348;DHT22;18821;44.800;10.326;2023-04-30T00:18:09;16.60;41.50
32348;DHT22;18821;44.800;10.326;2023-04-30T00:20:35;16.60;42.60
32348;DHT22;18821;44.800;10.326;2023-04-30T00:23:01;16.60;43.60
32348;DHT22;18821;44.800;10.326;2023-04-30T00:25:27;16.60;43.20
32348;DHT22;18821;44.800;10.326;2023-04-30T00:27:53;16.50;44.30
32348;DHT22;18821;44.800;10.326;2023-04-30T00:30:19;16.50;45.00
32348;DHT22;18821;44.800;10.326;2023-04-30T00:32:45;16.40;47.30
32348;DHT22;18821;44.800;10.326;2023-04-30T00:35:11;16.40;48.50
32348;DHT22;18821;44.800;10.326;2023-04-30T00:37:37;16.30;49.80
32348;DHT22;18821;44.800;10.326;2023-04-30T00:40:03;16.30;52.60
32348;DHT22;18821;44.800;10.326;2023-04-30T00:42:30;16.20;54.20
32348;DHT22;18821;44.800;10.326;2023-04-30T00:44:56;16.20;54.40
32348;DHT22;18821;44.800;10.326;2023-04-30T00:47:23;16.10;57.60
32348;DHT22;18821;44.800;10.326;2023-04-30T00:49:49;16.10;58.90
32348;DHT22;18821;44.800;10.326;2023-04-30T00:52:16;16.10;60.20
32348;DHT22;18821;44.800;10.326;2023-04-30T00:54:42;16.10;61.10
32348;DHT22;18821;44.800;10.326;2023-04-30T00:57:11;16.00;62.60
32348;DHT22;18821;44.800;10.326;2023-04-30T00:59:38;16.00;62.90
32348;DHT22;18821;44.800;10.326;2023-04-30T01:02:04;16.00;65.20
32348;DHT22;18821;44.800;10.326;2023-04-30T01:04:30;15.90;67.30
32348;DHT22;18821;44.800;10.326;2023-04-30T01:06:59;15.90;66.70
32348;DHT22;18821;44.800;10.326;2023-04-30T01:09:27;15.80;70.00
32348;DHT22;18821;44.800;10.326;2023-04-30T01:12:15;15.70;72.40
32348;DHT22;18821;44.800;10.326;2023-04-30T01:15:07;15.70;76.70
32348;DHT22;18821;44.800;10.326;2023-04-30T01:18:02;15.60;79.00
32348;DHT22;18821;44.800;10.326;2023-04-30T01:20:28;15.60;80.00
32348;DHT22;18821;44.800;10.326;2023-04-30T01:29:14;15.60;83.20
32348;DHT22;18821;44.800;10.326;2023-04-30T01:31:42;15.60;81.70
32348;DHT22;18821;44.800;10.326;2023-04-30T01:34:09;15.50;82.10
32348;DHT22;18821;44.800;10.326;2023-04-30T01:39:45;15.50;84.00
32348;DHT22;18821;44.800;10.326;2023-04-30T01:42:20;15.60;84.50
32348;DHT22;18821;44.800;10.326;2023-04-30T01:48:33;15.50;84.70
32348;DHT22;18821;44.800;10.326;2023-04-30T01:50:50;15.50;86.10
32348;DHT22;18821;44.800;10.326;2023-04-30T01:53:22;15.50;87.10
32348;DHT22;18821;44.800;10.326;2023-04-30T01:55:55;15.50;85.80
32348;DHT22;18821;44.800;10.326;2023-04-30T01:58:23;15.50;86.30
32348;DHT22;18821;44.800;10.326;2023-04-30T02:00:49;15.50;87.40
32348;DHT22;18821;44.800;10.326;2023-04-30T02:03:15;15.50;88.30
32348;DHT22;18821;44.800;10.326;2023-04-30T02:05:41;15.50;88.70
32348;DHT22;18821;44.800;10.326;2023-04-30T02:08:07;15.60;87.10
32348;DHT22;18821;44.800;10.326;2023-04-30T02:10:33;15.60;85.60
32348;DHT22;18821;44.800;10.326;2023-04-30T02:12:59;15.60;84.40
32348;DHT22;18821;44.800;10.326;2023-04-30T02:15:25;15.60;82.50
32348;DHT22;18821;44.800;10.326;2023-04-30T02:17:52;15.50;80.70
32348;DHT22;18821;44.800;10.326;2023-04-30T02:20:19;15.50;85.20
32348;DHT22;18821;44.800;10.326;2023-04-30T02:22:45;15.50;86.60
32348;DHT22;18821;44.800;10.326;2023-04-30T02:25:11;15.50;85.80
32348;DHT22;18821;44.800;10.326;2023-04-30T02:27:37;15.50;85.40
32348;DHT22;18821;44.800;10.326;2023-04-30T02:30:03;15.40;86.40
32348;DHT22;18821;44.800;10.326;2023-04-30T02:32:30;15.40;86.60
32348;DHT22;18821;44.800;10.326;2023-04-30T02:34:57;15.40;87.50
32348;DHT22;18821;44.800;10.326;2023-04-30T02:37:23;15.30;89.50
32348;DHT22;18821;44.800;10.326;2023-04-30T02:39:49;15.20;87.50
32348;DHT22;18821;44.800;10.326;2023-04-30T02:42:15;15.20;90.90
32348;DHT22;18821;44.800;10.326;2023-04-30T02:44:41;15.20;91.70
32348;DHT22;18821;44.800;10.326;2023-04-30T02:47:08;15.20;91.90
32348;DHT22;18821;44.800;10.326;2023-04-30T02:49:34;15.10;91.30
32348;DHT22;18821;44.800;10.326;2023-04-30T02:52:00;15.10;92.80
32348;DHT22;18821;44.800;10.326;2023-04-30T02:54:26;15.10;93.00
32348;DHT22;18821;44.800;10.326;2023-04-30T02:56:53;15.10;93.50
32348;DHT22;18821;44.800;10.326;2023-04-30T02:59:19;15.00;92.40
32348;DHT22;18821;44.800;10.326;2023-04-30T03:01:45;15.00;92.30
32348;DHT22;18821;44.800;10.326;2023-04-30T03:04:11;14.90;92.40
32348;DHT22;18821;44.800;10.326;2023-04-30T03:06:37;14.80;92.20
32348;DHT22;18821;44.800;10.326;2023-04-30T03:09:03;14.70;94.40
32348;DHT22;18821;44.800;10.326;2023-04-30T03:11:30;14.70;94.90
32348;DHT22;18821;44.800;10.326;2023-04-30T03:13:58;14.70;95.40
32348;DHT22;18821;44.800;10.326;2023-04-30T03:16:24;14.60;95.90
32348;DHT22;18821;44.800;10.326;2023-04-30T03:18:50;14.60;94.70
32348;DHT22;18821;44.800;10.326;2023-04-30T03:21:17;14.40;94.90
32348;DHT22;18821;44.800;10.326;2023-04-30T03:23:43;14.30;96.30
32348;DHT22;18821;44.800;10.326;2023-04-30T03:26:09;14.20;97.80
32348;DHT22;18821;44.800;10.326;2023-04-30T03:28:35;14.20;99.00
32348;DHT22;18821;44.800;10.326;2023-04-30T03:31:01;14.10;99.40
32348;DHT22;18821;44.800;10.326;2023-04-30T03:33:30;14.10;99.90
32348;DHT22;18821;44.800;10.326;2023-04-30T03:35:57;14.10;99.40
32348;DHT22;18821;44.800;10.326;2023-04-30T03:38:23;14.00;99.20
32348;DHT22;18821;44.800;10.326;2023-04-30T03:40:49;14.00;99.40
32348;DHT22;18821;44.800;10.326;2023-04-30T03:43:15;14.00;99.90
32348;DHT22;18821;44.800;10.326;2023-04-30T03:45:41;14.00;99.90
32348;DHT22;18821;44.800;10.326;2023-04-30T03:48:07;14.00;99.40
32348;DHT22;18821;44.800;10.326;2023-04-30T03:50:33;14.00;99.60
32348;DHT22;18821;44.800;10.326;2023-04-30T03:52:59;14.00;99.90
32348;DHT22;18821;44.800;10.326;2023-04-30T03:55:26;14.00;99.90
32348;DHT22;18821;44.800;10.326;2023-04-30T03:57:52;14.10;99.90
32348;DHT22;18821;44.800;10.326;2023-04-30T04:00:18;14.00;98.70
32348;DHT22;18821;44.800;10.326;2023-04-30T04:02:48;14.00;99.10
32348;DHT22;18821;44.800;10.326;2023-04-30T04:05:14;14.10;99.80
32348;DHT22;18821;44.800;10.326;2023-04-30T04:07:40;14.10;99.40
32348;DHT22;18821;44.800;10.326;2023-04-30T04:10:07;14.10;98.40
32348;DHT22;18821;44.800;10.326;2023-04-30T04:12:33;14.20;98.20
32348;DHT22;18821;44.800;10.326;2023-04-30T04:14:59;14.20;97.70
32348;DHT22;18821;44.800;10.326;2023-04-30T04:17:25;14.30;97.30
32348;DHT22;18821;44.800;10.326;2023-04-30T04:19:51;14.20;96.30
32348;DHT22;18821;44.800;10.326;2023-04-30T04:22:17;14.20;96.30
32348;DHT22;18821;44.800;10.326;2023-04-30T04:24:45;14.30;96.90
32348;DHT22;18821;44.800;10.326;2023-04-30T04:27:15;14.30;94.80
32348;DHT22;18821;44.800;10.326;2023-04-30T04:29:41;14.20;95.30
32348;DHT22;18821;44.800;10.326;2023-04-30T04:32:07;14.20;93.60
32348;DHT22;18821;44.800;10.326;2023-04-30T04:34:35;14.10;94.70
32348;DHT22;18821;44.800;10.326;2023-04-30T04:37:03;14.20;96.70
32348;DHT22;18821;44.800;10.326;2023-04-30T04:39:29;14.10;93.80
32348;DHT22;18821;44.800;10.326;2023-04-30T04:41:56;14.10;93.50
32348;DHT22;18821;44.800;10.326;2023-04-30T04:44:24;14.10;95.00
32348;DHT22;18821;44.800;10.326;2023-04-30T04:46:50;14.20;95.50
32348;DHT22;18821;44.800;10.326;2023-04-30T04:49:18;14.20;94.30
32348;DHT22;18821;44.800;10.326;2023-04-30T04:51:45;14.20;94.90
32348;DHT22;18821;44.800;10.326;2023-04-30T04:54:11;14.10;94.20
32348;DHT22;18821;44.800;10.326;2023-04-30T04:56:37;14.20;95.80
32348;DHT22;18821;44.800;10.326;2023-04-30T04:59:03;14.10;94.20
32348;DHT22;18821;44.800;10.326;2023-04-30T05:01:29;14.10;94.70
32348;DHT22;18821;44.800;10.326;2023-04-30T05:03:55;14.10;95.00
32348;DHT22;18821;44.800;10.326;2023-04-30T05:06:21;14.10;97.30
32348;DHT22;18821;44.800;10.326;2023-04-30T05:08:47;14.00;97.90
32348;DHT22;18821;44.800;10.326;2023-04-30T05:11:13;14.10;98.60
32348;DHT22;18821;44.800;10.326;2023-04-30T05:13:39;14.20;98.70
32348;DHT22;18821;44.800;10.326;2023-04-30T05:16:06;14.30;97.30
32348;DHT22;18821;44.800;10.326;2023-04-30T05:18:32;14.30;95.50
32348;DHT22;18821;44.800;10.326;2023-04-30T05:20:58;14.40;94.50
32348;DHT22;18821;44.800;10.326;2023-04-30T05:23:23;14.40;93.30
32348;DHT22;18821;44.800;10.326;2023-04-30T05:25:53;14.50;93.20
32348;DHT22;18821;44.800;10.326;2023-04-30T05:28:20;14.60;92.70
32348;DHT22;18821;44.800;10.326;2023-04-30T05:30:46;14.60;90.30
32348;DHT22;18821;44.800;10.326;2023-04-30T05:33:12;14.70;87.10
32348;DHT22;18821;44.800;10.326;2023-04-30T05:35:37;14.70;84.70
32348;DHT22;18821;44.800;10.326;2023-04-30T05:38:03;14.80;82.30
32348;DHT22;18821;44.800;10.326;2023-04-30T05:40:29;14.90;82.10
32348;DHT22;18821;44.800;10.326;2023-04-30T05:42:55;15.00;80.30
32348;DHT22;18821;44.800;10.326;2023-04-30T05:45:21;15.10;74.50
32348;DHT22;18821;44.800;10.326;2023-04-30T05:47:47;15.10;71.90
32348;DHT22;18821;44.800;10.326;2023-04-30T05:50:13;15.00;70.80
32348;DHT22;18821;44.800;10.326;2023-04-30T05:52:39;14.90;74.30
32348;DHT22;18821;44.800;10.326;2023-04-30T05:55:05;14.80;78.80
32348;DHT22;18821;44.800;10.326;2023-04-30T05:57:31;14.80;78.80
32348;DHT22;18821;44.800;10.326;2023-04-30T05:59:57;14.80;82.10
32348;DHT22;18821;44.800;10.326;2023-04-30T06:02:23;14.80;83.60
32348;DHT22;18821;44.800;10.326;2023-04-30T06:04:50;14.90;81.60
32348;DHT22;18821;44.800;10.326;2023-04-30T06:07:16;15.10;79.60
32348;DHT22;18821;44.800;10.326;2023-04-30T06:09:42;15.30;81.70
32348;DHT22;18821;44.800;10.326;2023-04-30T06:12:08;15.60;73.70
32348;DHT22;18821;44.800;10.326;2023-04-30T06:14:34;16.00;63.40
32348;DHT22;18821;44.800;10.326;2023-04-30T06:17:00;16.20;49.00
32348;DHT22;18821;44.800;10.326;2023-04-30T06:19:26;16.30;37.00
32348;DHT22;18821;44.800;10.326;2023-04-30T06:21:52;16.40;36.10
32348;DHT22;18821;44.800;10.326;2023-04-30T06:24:18;16.50;32.40
32348;DHT22;18821;44.800;10.326;2023-04-30T06:26:44;16.60;30.70
32348;DHT22;18821;44.800;10.326;2023-04-30T06:29:10;16.70;27.40
32348;DHT22;18821;44.800;10.326;2023-04-30T06:31:36;16.70;22.20
32348;DHT22;18821;44.800;10.326;2023-04-30T06:34:01;16.70;22.40
32348;DHT22;18821;44.800;10.326;2023-04-30T06:36:27;16.60;21.50
32348;DHT22;18821;44.800;10.326;2023-04-30T06:38:53;16.60;22.70
32348;DHT22;18821;44.800;10.326;2023-04-30T06:41:19;16.40;24.90
32348;DHT22;18821;44.800;10.326;2023-04-30T06:43:45;16.40;28.40
32348;DHT22;18821;44.800;10.326;2023-04-30T06:46:11;16.50;28.40
32348;DHT22;18821;44.800;10.326;2023-04-30T06:48:37;16.60;25.90
32348;DHT22;18821;44.800;10.326;2023-04-30T06:51:03;16.80;23.80
32348;DHT22;18821;44.800;10.326;2023-04-30T06:53:29;16.90;15.60
32348;DHT22;18821;44.800;10.326;2023-04-30T06:56:15;17.00;17.10
32348;DHT22;18821;44.800;10.326;2023-04-30T06:58:49;17.20;13.20
32348;DHT22;18821;44.800;10.326;2023-04-30T07:01:15;17.20;7.80
32348;DHT22;18821;44.800;10.326;2023-04-30T07:03:42;17.30;7.40
32348;DHT22;18821;44.800;10.326;2023-04-30T07:06:08;17.50;8.00
32348;DHT22;18821;44.800;10.326;2023-04-30T07:08:33;17.60;1.00
32348;DHT22;18821;44.800;10.326;2023-04-30T07:10:59;17.40;1.00
32348;DHT22;18821;44.800;10.326;2023-04-30T07:13:25;17.50;3.00
32348;DHT22;18821;44.800;10.326;2023-04-30T07:15:51;17.70;1.40
32348;DHT22;18821;44.800;10.326;2023-04-30T07:18:17;17.60;1.00
32348;DHT22;18821;44.800;10.326;2023-04-30T07:20:43;17.70;1.00
32348;DHT22;18821;44.800;10.326;2023-04-30T07:23:10;17.80;1.00
32348;DHT22;18821;44.800;10.326;2023-04-30T07:25:36;17.80;1.00
32348;DHT22;18821;44.800;10.326;2023-04-30T07:28:01;17.90;1.00
32348;DHT22;18821;44.800;10.326;2023-04-30T07:30:27;17.90;1.00
32348;DHT22;18821;44.800;10.326;2023-04-30T07:32:53;17.80;1.00
32348;DHT22;18821;44.800;10.326;2023-04-30T07:35:19;17.80;1.00
32348;DHT22;18821;44.800;10.326;2023-04-30T07:37:45;17.90;1.00
32348;DHT22;18821;44.800;10.326;2023-04-30T07:40:11;18.00;1.00
32348;DHT22;18821;44.800;10.326;2023-04-30T07:42:40;18.00;1.00
32348;DHT22;18821;44.800;10.326;2023-04-30T07:45:10;18.00;1.00
32348;DHT22;18821;44.800;10.326;2023-04-30T07:47:37;18.10;1.00
32348;DHT22;18821;44.800;10.326;2023-04-30T07:50:04;18.20;1.00
32348;DHT22;18821;44.800;10.326;2023-04-30T07:52:30;18.30;1.00
32348;DHT22;18821;44.800;10.326;2023-04-30T07:54:56;18.60;1.00
32348;DHT22;18821;44.800;10.326;2023-04-30T07:57:22;18.70;1.00
32348;DHT22;18821;44.800;10.326;2023-04-30T07:59:52;18.60;1.00
32348;DHT22;18821;44.800;10.326;2023-04-30T08:02:18;18.60;1.00
32348;DHT22;18821;44.800;10.326;2023-04-30T08:04:44;18.40;1.00
32348;DHT22;18821;44.800;10.326;2023-04-30T08:07:10;18.40;1.00
32348;DHT22;18821;44.800;10.326;2023-04-30T08:09:37;18.40;1.00
32348;DHT22;18821;44.800;10.326;2023-04-30T08:12:03;18.50;1.00
32348;DHT22;18821;44.800;10.326;2023-04-30T08:14:30;18.50;1.00
32348;DHT22;18821;44.800;10.326;2023-04-30T08:16:56;18.60;1.00
32348;DHT22;18821;44.800;10.326;2023-04-30T08:19:24;18.70;1.00
32348;DHT22;18821;44.800;10.326;2023-04-30T08:21:50;18.90;1.00
32348;DHT22;18821;44.800;10.326;2023-04-30T08:24:16;19.20;1.00
32348;DHT22;18821;44.800;10.326;2023-04-30T08:26:42;19.40;1.00
32348;DHT22;18821;44.800;10.326;2023-04-30T08:29:08;19.30;1.00
32348;DHT22;18821;44.800;10.326;2023-04-30T08:31:35;19.50;1.00
32348;DHT22;18821;44.800;10.326;2023-04-30T08:34:00;19.60;1.00
32348;DHT22;18821;44.800;10.326;2023-04-30T08:36:26;19.70;1.00
32348;DHT22;18821;44.800;10.326;2023-04-30T08:38:53;19.50;1.00
32348;DHT22;18821;44.800;10.326;2023-04-30T08:41:24;19.50;1.00
32348;DHT22;18821;44.800;10.326;2023-04-30T08:43:52;19.50;1.00
32348;DHT22;18821;44.800;10.326;2023-04-30T08:46:19;19.60;1.00
32348;DHT22;18821;44.800;10.326;2023-04-30T08:48:45;19.60;1.00
32348;DHT22;18821;44.800;10.326;2023-04-30T08:51:13;19.70;1.00
32348;DHT22;18821;44.800;10.326;2023-04-30T08:53:39;19.50;1.00
32348;DHT22;18821;44.800;10.326;2023-04-30T08:56:09;19.50;1.00
32348;DHT22;18821;44.800;10.326;2023-04-30T08:58:39;19.50;1.00
32348;DHT22;18821;44.800;10.326;2023-04-30T09:01:06;19.50;1.00
32348;DHT22;18821;44.800;10.326;2023-04-30T09:03:34;19.50;1.00
32348;DHT22;18821;44.800;10.326;2023-04-30T09:06:00;19.50;1.00
32348;DHT22;18821;44.800;10.326;2023-04-30T09:08:46;19.50;1.00
32348;DHT22;18821;44.800;10.326;2023-04-30T09:11:23;19.60;1.00
32348;DHT22;18821;44.800;10.326;2023-04-30T09:13:54;19.80;1.00
32348;DHT22;18821;44.800;10.326;2023-04-30T09:16:20;20.00;1.00
32348;DHT22;18821;44.800;10.326;2023-04-30T09:18:47;20.20;1.00
32348;DHT22;18821;44.800;10.326;2023-04-30T09:21:13;20.40;1.00
32348;DHT22;18821;44.800;10.326;2023-04-30T09:24:03;20.30;1.00
32348;DHT22;18821;44.800;10.326;2023-04-30T09:26:37;20.10;1.00
32348;DHT22;18821;44.800;10.326;2023-04-30T09:29:04;19.80;1.00
32348;DHT22;18821;44.800;10.326;2023-04-30T09:31:36;19.80;1.00
32348;DHT22;18821;44.800;10.326;2023-04-30T09:34:03;19.90;1.00
32348;DHT22;18821;44.800;10.326;2023-04-30T09:36:30;19.90;1.00
32348;DHT22;18821;44.800;10.326;2023-04-30T09:39:04;20.10;1.00
32348;DHT22;18821;44.800;10.326;2023-04-30T09:41:31;20.20;1.00
32348;DHT22;18821;44.800;10.326;2023-04-30T09:43:57;20.50;1.00
32348;DHT22;18821;44.800;10.326;2023-04-30T09:46:30;20.70;1.00
32348;DHT22;18821;44.800;10.326;2023-04-30T09:49:01;20.70;1.00
32348;DHT22;18821;44.800;10.326;2023-04-30T09:51:28;20.90;1.00
32348;DHT22;18821;44.800;10.326;2023-04-30T09:53:54;21.00;99.90
32348;DHT22;18821;44.800;10.326;2023-04-30T09:56:25;21.20;99.90
32348;DHT22;18821;44.800;10.326;2023-04-30T09:58:53;21.10;99.90
32348;DHT22;18821;44.800;10.326;2023-04-30T10:01:20;20.90;99.90
32348;DHT22;18821;44.800;10.326;2023-04-30T10:03:47;20.70;99.90
32348;DHT22;18821;44.800;10.326;2023-04-30T10:06:14;20.50;99.90
32348;DHT22;18821;44.800;10.326;2023-04-30T10:08:46;20.60;99.90
32348;DHT22;18821;44.800;10.326;2023-04-30T10:11:18;20.80;99.90
32348;DHT22;18821;44.800;10.326;2023-04-30T10:14:01;21.00;99.90
32348;DHT22;18821;44.800;10.326;2023-04-30T10:19:06;21.10;99.90
32348;DHT22;18821;44.800;10.326;2023-04-30T10:21:39;21.20;99.90
32348;DHT22;18821;44.800;10.326;2023-04-30T10:24:09;21.20;99.90
32348;DHT22;18821;44.800;10.326;2023-04-30T10:26:35;21.10;99.90
32348;DHT22;18821;44.800;10.326;2023-04-30T10:29:01;21.30;99.90
32348;DHT22;18821;44.800;10.326;2023-04-30T10:31:28;21.30;99.90
32348;DHT22;18821;44.800;10.326;2023-04-30T10:36:39;21.40;91.40
32348;DHT22;18821;44.800;10.326;2023-04-30T10:39:07;21.30;99.90
32348;DHT22;18821;44.800;10.326;2023-04-30T10:41:33;21.40;99.90
32348;DHT22;18821;44.800;10.326;2023-04-30T10:44:01;21.40;99.90
32348;DHT22;18821;44.800;10.326;2023-04-30T10:46:27;21.40;99.90
32348;DHT22;18821;44.800;10.326;2023-04-30T10:48:54;21.30;99.90
32348;DHT22;18821;44.800;10.326;2023-04-30T10:51:23;21.20;99.90
32348;DHT22;18821;44.800;10.326;2023-04-30T10:54:07;21.00;99.90
32348;DHT22;18821;44.800;10.326;2023-04-30T10:56:33;20.90;99.90
32348;DHT22;18821;44.800;10.326;2023-04-30T10:59:00;20.80;99.90
32348;DHT22;18821;44.800;10.326;2023-04-30T11:01:29;20.50;99.90
32348;DHT22;18821;44.800;10.326;2023-04-30T11:04:11;20.50;99.90
32348;DHT22;18821;44.800;10.326;2023-04-30T11:06:54;20.50;99.90
32348;DHT22;18821;44.800;10.326;2023-04-30T11:09:43;20.50;99.90
32348;DHT22;18821;44.800;10.326;2023-04-30T11:12:19;20.40;99.90
32348;DHT22;18821;44.800;10.326;2023-04-30T11:14:49;20.10;99.90
32348;DHT22;18821;44.800;10.326;2023-04-30T11:17:23;20.10;99.90
32348;DHT22;18821;44.800;10.326;2023-04-30T11:19:50;20.00;99.90
32348;DHT22;18821;44.800;10.326;2023-04-30T11:25:02;20.00;99.90
32348;DHT22;18821;44.800;10.326;2023-04-30T11:27:30;19.90;99.90
32348;DHT22;18821;44.800;10.326;2023-04-30T11:29:57;19.90;1.00
32348;DHT22;18821;44.800;10.326;2023-04-30T11:32:25;19.90;1.00
32348;DHT22;18821;44.800;10.326;2023-04-30T11:34:52;19.90;1.00
32348;DHT22;18821;44.800;10.326;2023-04-30T11:37:39;19.70;1.00
32348;DHT22;18821;44.800;10.326;2023-04-30T11:43:26;19.80;1.00
32348;DHT22;18821;44.800;10.326;2023-04-30T11:46:09;19.90;1.00
32348;DHT22;18821;44.800;10.326;2023-04-30T11:48:43;20.10;1.00
32348;DHT22;18821;44.800;10.326;2023-04-30T11:51:21;20.30;1.00
32348;DHT22;18821;44.800;10.326;2023-04-30T11:53:50;20.50;99.90
32348;DHT22;18821;44.800;10.326;2023-04-30T11:56:20;20.60;99.90
32348;DHT22;18821;44.800;10.326;2023-04-30T11:58:47;20.70;99.90
32348;DHT22;18821;44.800;10.326;2023-04-30T12:01:14;20.80;99.90
32348;DHT22;18821;44.800;10.326;2023-04-30T12:03:42;20.80;99.90
32348;DHT22;18821;44.800;10.326;2023-04-30T12:06:10;20.90;99.90
32348;DHT22;18821;44.800;10.326;2023-04-30T12:08:36;20.90;99.90
32348;DHT22;18821;44.800;10.326;2023-04-30T12:11:02;20.80;99.90
32348;DHT22;18821;44.800;10.326;2023-04-30T12:13:30;20.80;99.90
32348;DHT22;18821;44.800;10.326;2023-04-30T12:15:57;20.80;99.90
32348;DHT22;18821;44.800;10.326;2023-04-30T12:18:24;20.80;99.90
32348;DHT22;18821;44.800;10.326;2023-04-30T12:20:51;20.90;99.90
32348;DHT22;18821;44.800;10.326;2023-04-30T12:23:18;20.90;99.90
32348;DHT22;18821;44.800;10.326;2023-04-30T12:25:45;21.00;99.90
32348;DHT22;18821;44.800;10.326;2023-04-30T12:28:12;20.90;99.90
32348;DHT22;18821;44.800;10.326;2023-04-30T12:30:41;20.90;99.90
32348;DHT22;18821;44.800;10.326;2023-04-30T12:33:10;21.00;99.90
32348;DHT22;18821;44.800;10.326;2023-04-30T12:35:41;21.00;99.90
32348;DHT22;18821;44.800;10.326;2023-04-30T12:38:07;20.80;99.90
32348;DHT22;18821;44.800;10.326;2023-04-30T12:40:34;20.80;99.90
32348;DHT22;18821;44.800;10.326;2023-04-30T12:43:07;20.50;99.90
32348;DHT22;18821;44.800;10.326;2023-04-30T12:45:47;20.40;99.90
32348;DHT22;18821;44.800;10.326;2023-04-30T12:48:16;20.40;1.00
32348;DHT22;18821;44.800;10.326;2023-04-30T12:50:57;20.40;1.00
32348;DHT22;18821;44.800;10.326;2023-04-30T12:53:23;20.50;99.90
32348;DHT22;18821;44.800;10.326;2023-04-30T12:56:09;20.60;99.90
32348;DHT22;18821;44.800;10.326;2023-04-30T12:58:37;20.60;99.90
32348;DHT22;18821;44.800;10.326;2023-04-30T13:01:04;20.70;99.90
32348;DHT22;18821;44.800;10.326;2023-04-30T13:03:30;20.80;99.90
32348;DHT22;18821;44.800;10.326;2023-04-30T13:05:55;21.00;99.90
32348;DHT22;18821;44.800;10.326;2023-04-30T13:08:23;21.20;99.90
32348;DHT22;18821;44.800;10.326;2023-04-30T13:10:49;21.10;99.90
32348;DHT22;18821;44.800;10.326;2023-04-30T13:13:18;21.20;99.90
32348;DHT22;18821;44.800;10.326;2023-04-30T13:15:46;21.20;99.90
32348;DHT22;18821;44.800;10.326;2023-04-30T13:18:13;21.30;99.90
32348;DHT22;18821;44.800;10.326;2023-04-30T13:20:40;21.30;99.90
32348;DHT22;18821;44.800;10.326;2023-04-30T13:23:09;21.40;99.90
32348;DHT22;18821;44.800;10.326;2023-04-30T13:25:37;21.50;99.90
32348;DHT22;18821;44.800;10.326;2023-04-30T13:28:04;21.50;99.90
32348;DHT22;18821;44.800;10.326;2023-04-30T13:30:30;21.50;99.90
32348;DHT22;18821;44.800;10.326;2023-04-30T13:32:56;21.70;99.90
32348;DHT22;18821;44.800;10.326;2023-04-30T13:35:22;21.70;99.90
32348;DHT22;18821;44.800;10.326;2023-04-30T13:37:48;21.70;99.90
32348;DHT22;18821;44.800;10.326;2023-04-30T13:40:17;21.60;99.90
32348;DHT22;18821;44.800;10.326;2023-04-30T13:42:47;21.40;99.90
32348;DHT22;18821;44.800;10.326;2023-04-30T13:45:13;21.50;99.90
32348;DHT22;18821;44.800;10.326;2023-04-30T13:47:39;21.60;99.90
32348;DHT22;18821;44.800;10.326;2023-04-30T13:50:06;21.60;99.90
32348;DHT22;18821;44.800;10.326;2023-04-30T13:52:35;21.70;99.90
32348;DHT22;18821;44.800;10.326;2023-04-30T13:55:01;21.90;99.90
32348;DHT22;18821;44.800;10.326;2023-04-30T13:57:28;22.00;99.90
32348;DHT22;18821;44.800;10.326;2023-04-30T13:59:57;22.00;99.90
32348;DHT22;18821;44.800;10.326;2023-04-30T14:02:23;22.00;99.90
32348;DHT22;18821;44.800;10.326;2023-04-30T14:04:49;21.80;99.90
32348;DHT22;18821;44.800;10.326;2023-04-30T14:07:15;21.70;99.90
32348;DHT22;18821;44.800;10.326;2023-04-30T14:09:41;21.80;99.90
32348;DHT22;18821;44.800;10.326;2023-04-30T14:12:06;21.80;99.90
32348;DHT22;18821;44.800;10.326;2023-04-30T14:14:32;21.80;99.90
32348;DHT22;18821;44.800;10.326;2023-04-30T14:16:58;21.60;99.90
32348;DHT22;18821;44.800;10.326;2023-04-30T14:19:24;21.80;99.90
32348;DHT22;18821;44.800;10.326;2023-04-30T14:21:50;21.90;12.70
32348;DHT22;18821;44.800;10.326;2023-04-30T14:24:16;22.00;1.00
32348;DHT22;18821;44.800;10.326;2023-04-30T14:26:48;22.00;1.00
32348;DHT22;18821;44.800;10.326;2023-04-30T14:29:15;22.10;1.00
32348;DHT22;18821;44.800;10.326;2023-04-30T14:31:41;22.30;1.00
32348;DHT22;18821;44.800;10.326;2023-04-30T14:34:06;22.40;1.00
32348;DHT22;18821;44.800;10.326;2023-04-30T14:36:33;22.40;1.00
32348;DHT22;18821;44.800;10.326;2023-04-30T14:39:00;22.30;1.00
32348;DHT22;18821;44.800;10.326;2023-04-30T14:41:26;22.30;1.00
32348;DHT22;18821;44.800;10.326;2023-04-30T14:43:55;22.30;1.00
32348;DHT22;18821;44.800;10.326;2023-04-30T14:46:21;22.30;1.00
32348;DHT22;18821;44.800;10.326;2023-04-30T14:48:47;22.50;99.90
32348;DHT22;18821;44.800;10.326;2023-04-30T14:51:13;22.50;99.90
32348;DHT22;18821;44.800;10.326;2023-04-30T14:53:39;22.60;99.90
32348;DHT22;18821;44.800;10.326;2023-04-30T14:56:05;22.60;76.00
32348;DHT22;18821;44.800;10.326;2023-04-30T14:58:31;22.50;99.90
32348;DHT22;18821;44.800;10.326;2023-04-30T15:00:57;22.40;99.90
32348;DHT22;18821;44.800;10.326;2023-04-30T15:03:24;22.20;99.90
32348;DHT22;18821;44.800;10.326;2023-04-30T15:05:50;22.30;99.90
32348;DHT22;18821;44.800;10.326;2023-04-30T15:08:17;22.50;99.90
32348;DHT22;18821;44.800;10.326;2023-04-30T15:10:43;22.70;99.90
32348;DHT22;18821;44.800;10.326;2023-04-30T15:13:14;22.60;99.90
32348;DHT22;18821;44.800;10.326;2023-04-30T15:15:43;22.60;99.90
32348;DHT22;18821;44.800;10.326;2023-04-30T15:18:11;22.50;99.90
32348;DHT22;18821;44.800;10.326;2023-04-30T15:20:38;22.40;99.90
32348;DHT22;18821;44.800;10.326;2023-04-30T15:23:04;22.30;99.90
32348;DHT22;18821;44.800;10.326;2023-04-30T15:25:30;22.30;1.00
32348;DHT22;18821;44.800;10.326;2023-04-30T15:27:56;22.30;1.00
32348;DHT22;18821;44.800;10.326;2023-04-30T15:30:23;22.20;1.00
32348;DHT22;18821;44.800;10.326;2023-04-30T15:32:49;21.90;1.00
32348;DHT22;18821;44.800;10.326;2023-04-30T15:35:14;21.80;1.00
32348;DHT22;18821;44.800;10.326;2023-04-30T15:37:40;21.90;1.00
32348;DHT22;18821;44.800;10.326;2023-04-30T15:40:08;21.80;1.00
32348;DHT22;18821;44.800;10.326;2023-04-30T15:42:38;21.70;1.00
32348;DHT22;18821;44.800;10.326;2023-04-30T15:45:05;21.60;1.00
32348;DHT22;18821;44.800;10.326;2023-04-30T15:47:32;21.50;1.00